Time;durP1;ratioP1;P1;durP2;ratioP2;P2;SDS_P1;SDS_P2;PMS_P1;PMS_P2;Temp;Humidity;BMP_temperature;BMP_pressure;BME280_temperature;BME280_humidity;BME280_pressure;Samples;Min_cycle;Max_cycle;Signal;HPM_P1;HPM_P2
2023/09/15 00:00:30;;;;;;;6.95;2.60;;;;;;;;;;5020395;28;20092;-87
2023/09/15 00:02:57;;;;;;;5.43;2.58;;;;;;;;;;5019601;28;20423;-87
2023/09/15 00:05:23;;;;;;;4.25;2.65;;;;;;;;;;5020443;28;20037;-87
2023/09/15 00:07:49;;;;;;;5.25;2.92;;;;;;;;;;5020740;28;20028;-88
2023/09/15 00:10:19;;;;;;;3.40;2.70;;;;;;;;;;5020415;28;20026;-88
2023/09/15 00:12:45;;;;;;;6.00;2.40;;;;;;;;;;5019079;28;20022;-89
2023/09/15 00:15:12;;;;;;;5.07;2.75;;;;;;;;;;5020202;28;20034;-89
2023/09/15 00:17:39;;;;;;;4.10;2.88;;;;;;;;;;5020065;28;20030;-88
2023/09/15 00:20:25;;;;;;;6.45;2.80;;;;;;;;;;5018916;28;20026;-89
2023/09/15 00:22:52;;;;;;;3.30;2.47;;;;;;;;;;5018895;28;20034;-89
2023/09/15 00:25:22;;;;;;;6.15;3.00;;;;;;;;;;5019996;28;20030;-89
2023/09/15 00:27:49;;;;;;;3.72;2.90;;;;;;;;;;5019874;28;20026;-88
2023/09/15 00:30:16;;;;;;;3.20;2.63;;;;;;;;;;5019001;28;20370;-88
2023/09/15 00:32:42;;;;;;;4.05;2.45;;;;;;;;;;5019671;28;20038;-88
2023/09/15 00:35:08;;;;;;;5.25;2.70;;;;;;;;;;5019751;28;20025;-89
2023/09/15 00:37:35;;;;;;;3.15;2.70;;;;;;;;;;5018858;28;20037;-89
2023/09/15 00:40:01;;;;;;;5.55;2.65;;;;;;;;;;5019524;28;20022;-89
2023/09/15 00:42:27;;;;;;;6.10;2.75;;;;;;;;;;5019416;28;20033;-89
2023/09/15 00:44:53;;;;;;;4.00;2.67;;;;;;;;;;5019836;28;20076;-90
2023/09/15 00:47:19;;;;;;;3.70;2.80;;;;;;;;;;5018232;28;20045;-90
2023/09/15 00:50:16;;;;;;;4.97;2.65;;;;;;;;;;5019733;28;20180;-92
2023/09/15 00:52:54;;;;;;;2.75;2.50;;;;;;;;;;5019225;28;20064;-89
2023/09/15 00:55:24;;;;;;;3.90;2.40;;;;;;;;;;5018528;28;20028;-91
2023/09/15 00:57:51;;;;;;;5.75;2.78;;;;;;;;;;5018748;28;20311;-91
2023/09/15 01:00:19;;;;;;;4.82;2.55;;;;;;;;;;5018811;28;20453;-90
2023/09/15 01:02:46;;;;;;;5.22;2.33;;;;;;;;;;5019428;28;20037;-90
2023/09/15 01:05:23;;;;;;;3.35;2.30;;;;;;;;;;5019355;28;20109;-91
2023/09/15 01:07:53;;;;;;;;;;;;;;;;;;5019870;28;20029;-90
2023/09/15 01:10:25;;;;;;;5.65;2.28;;;;;;;;;;5019375;28;19917;-89
2023/09/15 01:12:52;;;;;;;3.70;2.70;;;;;;;;;;5017296;28;20026;-86
2023/09/15 01:15:20;;;;;;;2.83;2.15;;;;;;;;;;5017529;28;20061;-87
2023/09/15 01:17:49;;;;;;;6.13;2.28;;;;;;;;;;5019176;28;20037;-86
2023/09/15 01:23:37;;;;;;;2.72;2.42;;;;;;;;;;5018863;28;20423;-86
2023/09/15 01:26:22;;;;;;;4.20;2.38;;;;;;;;;;5018719;28;20343;-86
2023/09/15 01:29:00;;;;;;;2.65;2.42;;;;;;;;;;5017626;28;20064;-85
2023/09/15 01:31:27;;;;;;;4.53;2.50;;;;;;;;;;5018760;28;20032;-85
2023/09/15 01:33:54;;;;;;;2.78;2.35;;;;;;;;;;5017745;28;20029;-87
2023/09/15 01:36:20;;;;;;;4.35;2.70;;;;;;;;;;5017627;28;20336;-86
2023/09/15 01:38:46;;;;;;;3.60;2.55;;;;;;;;;;5017668;28;20315;-86
2023/09/15 01:41:12;;;;;;;3.78;2.45;;;;;;;;;;5017366;28;20488;-87
2023/09/15 01:43:38;;;;;;;3.70;2.75;;;;;;;;;;5017515;28;20038;-88
2023/09/15 01:46:04;;;;;;;3.95;2.80;;;;;;;;;;5017379;28;20033;-88
2023/09/15 01:48:31;;;;;;;2.90;2.63;;;;;;;;;;5018559;28;20030;-90
2023/09/15 01:54:01;;;;;;;3.17;2.78;;;;;;;;;;4999079;28;20072;-89
2023/09/15 01:56:29;;;;;;;3.17;2.85;;;;;;;;;;4997754;28;20022;-88
2023/09/15 01:58:55;;;;;;;4.00;2.92;;;;;;;;;;4998962;28;20077;-88
2023/09/15 02:01:21;;;;;;;3.92;2.92;;;;;;;;;;4999099;28;20031;-88
2023/09/15 02:03:48;;;;;;;6.10;3.53;;;;;;;;;;5017179;28;20061;-88
2023/09/15 02:09:31;;;;;;;5.47;3.17;;;;;;;;;;5018085;28;20052;-87
2023/09/15 02:11:57;;;;;;;3.53;3.20;;;;;;;;;;5018168;28;20030;-87
2023/09/15 02:14:23;;;;;;;4.72;3.30;;;;;;;;;;5018239;28;20025;-87
2023/09/15 02:16:51;;;;;;;3.92;3.47;;;;;;;;;;5016994;28;20076;-87
2023/09/15 02:19:36;;;;;;;5.25;3.67;;;;;;;;;;5018345;28;20050;-87
2023/09/15 02:22:02;;;;;;;5.70;3.63;;;;;;;;;;5016834;28;20034;-87
2023/09/15 02:24:28;;;;;;;4.35;3.63;;;;;;;;;;5018076;28;20054;-87
2023/09/15 02:26:54;;;;;;;5.38;3.65;;;;;;;;;;5017850;28;20029;-87
2023/09/15 02:29:20;;;;;;;3.88;3.45;;;;;;;;;;5017811;28;20032;-87
2023/09/15 02:31:47;;;;;;;4.55;3.65;;;;;;;;;;5016680;28;20133;-87
2023/09/15 02:34:14;;;;;;;5.53;3.70;;;;;;;;;;5018088;28;20026;-87
2023/09/15 02:36:40;;;;;;;6.55;3.38;;;;;;;;;;5016743;28;20038;-87
2023/09/15 02:39:06;;;;;;;6.32;3.78;;;;;;;;;;5016834;28;20065;-87
2023/09/15 02:41:32;;;;;;;5.88;3.50;;;;;;;;;;5016671;28;20112;-87
2023/09/15 02:43:59;;;;;;;6.45;3.85;;;;;;;;;;5017657;28;20034;-87
2023/09/15 02:46:26;;;;;;;6.10;4.07;;;;;;;;;;5016413;28;20050;-86
2023/09/15 02:48:52;;;;;;;4.30;3.28;;;;;;;;;;5017085;28;20041;-87
2023/09/15 02:51:18;;;;;;;5.82;3.65;;;;;;;;;;5016699;28;20072;-88
2023/09/15 02:53:44;;;;;;;6.15;3.63;;;;;;;;;;5016760;28;20088;-89
2023/09/15 02:56:10;;;;;;;5.45;3.58;;;;;;;;;;5016842;28;20021;-89
2023/09/15 02:58:36;;;;;;;5.85;4.20;;;;;;;;;;5017439;28;20420;-89
2023/09/15 03:01:15;;;;;;;5.43;3.40;;;;;;;;;;5017629;28;20030;-88
2023/09/15 03:03:41;;;;;;;4.53;3.42;;;;;;;;;;5016835;28;20034;-88
2023/09/15 03:06:09;;;;;;;6.22;3.50;;;;;;;;;;5017307;28;20030;-89
2023/09/15 03:08:35;;;;;;;4.15;3.67;;;;;;;;;;5017833;28;20026;-88
2023/09/15 03:11:01;;;;;;;3.72;3.30;;;;;;;;;;5016698;28;20030;-88
2023/09/15 03:13:27;;;;;;;6.57;3.60;;;;;;;;;;5016332;28;20431;-89
2023/09/15 03:15:53;;;;;;;4.65;3.70;;;;;;;;;;5017617;28;20124;-88
2023/09/15 03:18:19;;;;;;;6.18;2.97;;;;;;;;;;5017583;28;20045;-88
2023/09/15 03:26:53;;;;;;;5.85;3.50;;;;;;;;;;5004746;28;20029;-85
2023/09/15 03:29:19;;;;;;;4.03;3.40;;;;;;;;;;5017019;28;20424;-89
2023/09/15 03:31:45;;;;;;;6.47;3.35;;;;;;;;;;5010467;28;20023;-88
2023/09/15 03:37:14;;;;;;;4.45;3.20;;;;;;;;;;4999518;28;20073;-86
2023/09/15 03:39:40;;;;;;;3.60;3.00;;;;;;;;;;5019578;28;20133;-87
2023/09/15 03:42:06;;;;;;;4.50;3.28;;;;;;;;;;5020094;28;20026;-87
2023/09/15 03:44:32;;;;;;;4.40;3.00;;;;;;;;;;5019842;28;20069;-86
2023/09/15 03:46:59;;;;;;;5.68;3.05;;;;;;;;;;5019510;28;20056;-86
2023/09/15 03:49:37;;;;;;;4.63;3.35;;;;;;;;;;5020347;28;20037;-90
2023/09/15 03:52:03;;;;;;;3.70;3.30;;;;;;;;;;5020324;28;20018;-85
2023/09/15 03:54:29;;;;;;;4.88;3.60;;;;;;;;;;5019088;28;20108;-84
2023/09/15 03:56:55;;;;;;;4.35;3.53;;;;;;;;;;5019198;28;20137;-84
2023/09/15 03:59:21;;;;;;;4.05;3.08;;;;;;;;;;5019890;28;20053;-84
2023/09/15 04:01:48;;;;;;;4.97;3.45;;;;;;;;;;5020118;28;20338;-84
2023/09/15 04:04:14;;;;;;;5.93;3.42;;;;;;;;;;5019028;28;20022;-83
2023/09/15 04:06:41;;;;;;;6.45;3.30;;;;;;;;;;5018902;28;20412;-83
2023/09/15 04:09:12;;;;;;;6.65;3.60;;;;;;;;;;5019970;28;20022;-83
2023/09/15 04:11:38;;;;;;;5.20;3.63;;;;;;;;;;5019627;28;20446;-84
2023/09/15 04:14:04;;;;;;;6.50;3.28;;;;;;;;;;5018813;28;20036;-83
2023/09/15 04:16:30;;;;;;;6.47;3.30;;;;;;;;;;5018651;28;20033;-83
2023/09/15 04:18:57;;;;;;;3.78;3.35;;;;;;;;;;5018726;28;20022;-83
2023/09/15 04:24:45;;;;;;;6.00;3.47;;;;;;;;;;5019916;28;20328;-84
2023/09/15 04:27:11;;;;;;;5.68;3.30;;;;;;;;;;5019922;28;20030;-84
2023/09/15 04:29:56;;;;;;;4.80;3.30;;;;;;;;;;5019615;28;20419;-84
2023/09/15 04:32:23;;;;;;;5.80;3.63;;;;;;;;;;5018256;28;20420;-85
2023/09/15 04:35:27;;;;;;;5.32;3.85;;;;;;;;;;5019584;28;20058;-83
2023/09/15 04:37:54;;;;;;;4.88;3.80;;;;;;;;;;5018400;28;20101;-84
2023/09/15 04:40:21;;;;;;;7.00;3.40;;;;;;;;;;5019468;28;20030;-84
2023/09/15 04:42:47;;;;;;;6.70;3.70;;;;;;;;;;5018366;28;20042;-84
2023/09/15 04:45:13;;;;;;;6.25;3.47;;;;;;;;;;5019274;28;20426;-84
2023/09/15 04:47:40;;;;;;;4.65;3.80;;;;;;;;;;5018933;28;20054;-84
2023/09/15 04:56:14;;;;;;;4.90;4.40;;;;;;;;;;4999368;28;20127;-83
2023/09/15 04:58:40;;;;;;;5.45;3.55;;;;;;;;;;4999561;28;20037;-85
2023/09/15 05:01:07;;;;;;;4.30;3.55;;;;;;;;;;5006083;28;20058;-84
2023/09/15 05:03:33;;;;;;;5.50;3.97;;;;;;;;;;5017966;28;20030;-84
2023/09/15 05:06:00;;;;;;;6.90;3.97;;;;;;;;;;5018685;28;20482;-84
2023/09/15 05:08:26;;;;;;;8.68;4.15;;;;;;;;;;5018947;28;20033;-84
2023/09/15 05:10:52;;;;;;;7.50;3.65;;;;;;;;;;5018719;28;20420;-83
2023/09/15 05:13:19;;;;;;;4.32;3.72;;;;;;;;;;5017925;28;20057;-84
2023/09/15 05:15:45;;;;;;;8.07;4.50;;;;;;;;;;5018748;28;20030;-84
2023/09/15 05:18:11;;;;;;;8.90;4.47;;;;;;;;;;5018872;28;20037;-84
2023/09/15 05:20:37;;;;;;;6.97;3.80;;;;;;;;;;5018460;28;20022;-84
2023/09/15 05:23:04;;;;;;;6.90;3.78;;;;;;;;;;5018813;28;20034;-83
2023/09/15 05:25:30;;;;;;;5.10;3.80;;;;;;;;;;5017431;28;20045;-83
2023/09/15 05:27:56;;;;;;;8.30;4.03;;;;;;;;;;5018533;28;20030;-83
2023/09/15 05:30:22;;;;;;;4.63;4.22;;;;;;;;;;5017077;28;20030;-83
2023/09/15 05:32:48;;;;;;;5.70;3.90;;;;;;;;;;5018397;28;20030;-83
2023/09/15 05:35:14;;;;;;;5.97;4.13;;;;;;;;;;5017943;28;20029;-83
2023/09/15 05:37:40;;;;;;;6.15;4.25;;;;;;;;;;5018305;28;20375;-84
2023/09/15 05:40:06;;;;;;;6.20;4.70;;;;;;;;;;5017193;28;20030;-84
2023/09/15 05:42:32;;;;;;;5.53;4.35;;;;;;;;;;5018394;28;20124;-83
2023/09/15 05:44:59;;;;;;;10.52;4.80;;;;;;;;;;5018204;28;20030;-84
2023/09/15 05:47:25;;;;;;;6.95;4.88;;;;;;;;;;5017898;28;20069;-84
2023/09/15 05:49:51;;;;;;;9.35;5.15;;;;;;;;;;5016738;28;20838;-84
2023/09/15 05:52:18;;;;;;;9.05;4.85;;;;;;;;;;5018252;28;20048;-85
2023/09/15 05:54:44;;;;;;;5.43;4.45;;;;;;;;;;5018101;28;20025;-85
2023/09/15 05:57:10;;;;;;;6.63;4.43;;;;;;;;;;5017517;28;20029;-85
2023/09/15 05:59:36;;;;;;;9.45;5.22;;;;;;;;;;5016733;28;20029;-84
2023/09/15 06:02:02;;;;;;;6.68;4.13;;;;;;;;;;5017050;28;20407;-83
2023/09/15 06:04:28;;;;;;;7.40;4.30;;;;;;;;;;5016654;28;20037;-83
2023/09/15 06:07:12;;;;;;;6.40;3.88;;;;;;;;;;5018066;28;20088;-84
2023/09/15 06:09:38;;;;;;;6.85;4.53;;;;;;;;;;5017833;28;20037;-84
2023/09/15 06:12:05;;;;;;;5.47;4.07;;;;;;;;;;5017989;28;20022;-83
2023/09/15 06:14:35;;;;;;;6.60;4.93;;;;;;;;;;5018092;28;20037;-84
2023/09/15 06:17:02;;;;;;;6.32;4.68;;;;;;;;;;5017751;28;20040;-84
2023/09/15 06:19:28;;;;;;;5.07;4.38;;;;;;;;;;5016535;28;20022;-84
2023/09/15 06:21:54;;;;;;;7.30;4.43;;;;;;;;;;5016302;28;20112;-84
2023/09/15 06:24:20;;;;;;;6.05;3.90;;;;;;;;;;5017622;28;20022;-86
2023/09/15 06:26:48;;;;;;;8.07;4.40;;;;;;;;;;5017775;28;20301;-86
2023/09/15 06:29:15;;;;;;;8.13;4.30;;;;;;;;;;5017614;28;20057;-85
2023/09/15 06:31:41;;;;;;;14.00;4.15;;;;;;;;;;5017355;28;20077;-86
2023/09/15 06:34:08;;;;;;;9.35;4.38;;;;;;;;;;5017350;28;20050;-85
2023/09/15 06:36:36;;;;;;;8.10;3.90;;;;;;;;;;5017931;28;20030;-85
2023/09/15 06:39:02;;;;;;;7.68;4.20;;;;;;;;;;5017788;28;20033;-85
2023/09/15 06:41:28;;;;;;;6.22;3.83;;;;;;;;;;5017918;28;20404;-84
2023/09/15 06:43:54;;;;;;;8.35;3.88;;;;;;;;;;5017280;28;20474;-84
2023/09/15 06:46:22;;;;;;;5.85;3.90;;;;;;;;;;5013618;28;20030;-90
2023/09/15 06:48:49;;;;;;;4.18;3.30;;;;;;;;;;5017138;28;20041;-90
2023/09/15 06:51:15;;;;;;;7.05;3.53;;;;;;;;;;5017870;28;20037;-90
2023/09/15 06:53:41;;;;;;;7.43;3.80;;;;;;;;;;5016589;28;20122;-89
2023/09/15 06:56:07;;;;;;;9.00;4.00;;;;;;;;;;5016236;28;20037;-90
2023/09/15 06:58:33;;;;;;;6.78;3.80;;;;;;;;;;5015789;28;20029;-90
2023/09/15 07:00:59;;;;;;;6.57;3.33;;;;;;;;;;5016261;28;20030;-90
2023/09/15 07:03:26;;;;;;;5.25;3.65;;;;;;;;;;5017845;28;20026;-90
2023/09/15 07:05:52;;;;;;;5.95;3.80;;;;;;;;;;5017231;28;20029;-90
2023/09/15 07:08:18;;;;;;;4.18;3.50;;;;;;;;;;5011222;28;20019;-91
2023/09/15 07:10:50;;;;;;;8.73;3.72;;;;;;;;;;4998082;28;20026;-90
2023/09/15 07:13:16;;;;;;;9.15;3.80;;;;;;;;;;5013435;28;20052;-90
2023/09/15 07:15:42;;;;;;;5.53;3.97;;;;;;;;;;5020276;28;20416;-90
2023/09/15 07:18:08;;;;;;;6.78;3.40;;;;;;;;;;5021336;28;20022;-80
2023/09/15 07:20:34;;;;;;;5.30;3.30;;;;;;;;;;5020293;28;20336;-90
2023/09/15 07:23:00;;;;;;;6.53;3.65;;;;;;;;;;5020090;28;20037;-90
2023/09/15 07:25:26;;;;;;;5.32;3.05;;;;;;;;;;5020190;28;20030;-90
2023/09/15 07:27:52;;;;;;;5.80;3.50;;;;;;;;;;5020007;28;20041;-90
2023/09/15 07:30:18;;;;;;;5.10;3.28;;;;;;;;;;5021367;28;20030;-90
2023/09/15 07:32:44;;;;;;;6.53;3.13;;;;;;;;;;5020041;28;20105;-90
2023/09/15 07:35:36;;;;;;;5.22;3.60;;;;;;;;;;5019976;28;20018;-90
2023/09/15 07:38:05;;;;;;;10.90;3.28;;;;;;;;;;5019812;28;20045;-88
2023/09/15 07:40:32;;;;;;;5.32;3.22;;;;;;;;;;5019811;28;20034;-88
2023/09/15 07:42:58;;;;;;;7.10;3.30;;;;;;;;;;5020474;28;20022;-88
2023/09/15 07:45:24;;;;;;;6.20;3.35;;;;;;;;;;5020687;28;20412;-87
2023/09/15 07:47:50;;;;;;;11.80;3.45;;;;;;;;;;5019652;28;20050;-87
2023/09/15 07:50:20;;;;;;;5.72;3.30;;;;;;;;;;5020437;28;20026;-88
2023/09/15 07:52:46;;;;;;;6.82;3.13;;;;;;;;;;5019630;28;20034;-87
2023/09/15 07:55:12;;;;;;;4.90;2.90;;;;;;;;;;5020600;28;20076;-88
2023/09/15 07:57:39;;;;;;;4.80;2.60;;;;;;;;;;5019460;28;20438;-87
2023/09/15 08:00:06;;;;;;;5.32;3.03;;;;;;;;;;5019529;28;20050;-88
2023/09/15 08:02:32;;;;;;;3.70;2.63;;;;;;;;;;5020493;28;20026;-87
2023/09/15 08:04:58;;;;;;;2.90;2.13;;;;;;;;;;5019440;28;20026;-87
2023/09/15 08:07:25;;;;;;;3.05;2.50;;;;;;;;;;5020235;28;20057;-88
2023/09/15 08:09:52;;;;;;;3.22;2.38;;;;;;;;;;5019243;28;20467;-87
2023/09/15 08:12:19;;;;;;;4.53;2.38;;;;;;;;;;5019280;28;20061;-87
2023/09/15 08:14:46;;;;;;;4.75;2.78;;;;;;;;;;5020207;28;20025;-87
2023/09/15 08:17:12;;;;;;;3.90;2.50;;;;;;;;;;5020311;28;20029;-87
2023/09/15 08:19:38;;;;;;;5.30;2.65;;;;;;;;;;5019972;28;20038;-88
2023/09/15 08:22:05;;;;;;;4.10;2.42;;;;;;;;;;5006564;28;20395;-87
2023/09/15 08:24:31;;;;;;;8.02;2.60;;;;;;;;;;5017920;28;20113;-87
2023/09/15 08:26:57;;;;;;;5.35;2.63;;;;;;;;;;5018985;28;20116;-87
2023/09/15 08:29:23;;;;;;;5.38;2.50;;;;;;;;;;5020000;28;20412;-87
2023/09/15 08:31:49;;;;;;;7.93;2.47;;;;;;;;;;5019127;28;20030;-87
2023/09/15 08:34:16;;;;;;;3.13;2.58;;;;;;;;;;5019711;28;20030;-87
2023/09/15 08:36:44;;;;;;;8.23;2.40;;;;;;;;;;5018225;28;20038;-87
2023/09/15 08:39:12;;;;;;;5.00;2.65;;;;;;;;;;5019365;28;20041;-87
2023/09/15 08:41:39;;;;;;;2.75;2.30;;;;;;;;;;5021975;28;20030;-87
2023/09/15 08:44:05;;;;;;;2.40;2.20;;;;;;;;;;5021034;28;20018;-87
2023/09/15 08:46:33;;;;;;;3.53;2.40;;;;;;;;;;5019567;28;20056;-88
2023/09/15 08:49:01;;;;;;;3.25;2.13;;;;;;;;;;5019569;28;20021;-88
2023/09/15 08:51:28;;;;;;;5.72;2.13;;;;;;;;;;5017331;28;20059;-87
2023/09/15 08:53:57;;;;;;;3.67;2.20;;;;;;;;;;5031392;28;20037;-86
2023/09/15 08:56:24;;;;;;;3.70;2.25;;;;;;;;;;5030628;28;20017;-87
2023/09/15 08:58:50;;;;;;;5.32;2.33;;;;;;;;;;5032819;28;20034;-87
2023/09/15 09:01:18;;;;;;;3.97;2.50;;;;;;;;;;5027269;28;20064;-87
2023/09/15 09:03:44;;;;;;;4.97;2.50;;;;;;;;;;5021939;28;20117;-86
2023/09/15 09:06:11;;;;;;;5.05;2.60;;;;;;;;;;5018557;28;20153;-90
2023/09/15 09:08:41;;;;;;;4.13;2.30;;;;;;;;;;5019542;28;20022;-89
2023/09/15 09:11:08;;;;;;;3.55;2.55;;;;;;;;;;5019369;28;20026;-92
2023/09/15 09:13:34;;;;;;;3.67;2.35;;;;;;;;;;5022050;28;20022;-92
2023/09/15 09:16:02;;;;;;;7.53;3.13;;;;;;;;;;5018762;28;20033;-88
2023/09/15 09:18:28;;;;;;;3.88;2.47;;;;;;;;;;5017767;28;20026;-87
2023/09/15 09:20:54;;;;;;;4.47;2.15;;;;;;;;;;5016966;28;20036;-89
2023/09/15 09:23:21;;;;;;;3.97;2.45;;;;;;;;;;5017827;28;20030;-88
2023/09/15 09:25:47;;;;;;;4.13;2.92;;;;;;;;;;5019001;28;20026;-88
2023/09/15 09:28:14;;;;;;;6.63;2.33;;;;;;;;;;5017987;28;20071;-87
2023/09/15 09:30:41;;;;;;;4.82;2.30;;;;;;;;;;5017550;28;20072;-88
2023/09/15 09:33:12;;;;;;;3.45;2.30;;;;;;;;;;5017939;28;20129;-91
2023/09/15 09:35:38;;;;;;;7.82;2.45;;;;;;;;;;5008277;28;20046;-89
2023/09/15 09:38:04;;;;;;;4.18;2.40;;;;;;;;;;5016591;28;20026;-90
2023/09/15 09:40:30;;;;;;;4.93;2.30;;;;;;;;;;5018169;28;20064;-91
2023/09/15 09:42:56;;;;;;;3.25;2.10;;;;;;;;;;5016511;28;20037;-89
2023/09/15 09:45:30;;;;;;;10.55;2.60;;;;;;;;;;5017946;28;20033;-90
2023/09/15 09:47:57;;;;;;;4.53;2.50;;;;;;;;;;5018535;28;20042;-90
2023/09/15 09:50:23;;;;;;;4.80;2.40;;;;;;;;;;5016904;28;20061;-85
2023/09/15 09:52:50;;;;;;;6.03;2.42;;;;;;;;;;5017817;28;20026;-87
2023/09/15 09:55:16;;;;;;;8.38;2.50;;;;;;;;;;5017098;28;20109;-86
2023/09/15 09:57:42;;;;;;;5.97;2.30;;;;;;;;;;5016758;28;20068;-86
2023/09/15 10:00:09;;;;;;;5.82;1.90;;;;;;;;;;5017421;28;20076;-86
2023/09/15 10:02:42;;;;;;;3.15;2.10;;;;;;;;;;5017799;28;20361;-86
2023/09/15 10:05:08;;;;;;;2.00;1.80;;;;;;;;;;5017869;28;20030;-85
2023/09/15 10:07:35;;;;;;;4.97;2.90;;;;;;;;;;5017185;28;20129;-87
2023/09/15 10:10:03;;;;;;;7.93;3.70;;;;;;;;;;5018309;28;20114;-86
2023/09/15 10:12:29;;;;;;;4.85;3.00;;;;;;;;;;5017118;28;20431;-88
2023/09/15 10:14:56;;;;;;;8.23;6.18;;;;;;;;;;5017609;28;20057;-86
2023/09/15 10:17:23;;;;;;;6.53;2.80;;;;;;;;;;5017488;28;20029;-87
2023/09/15 10:19:50;;;;;;;5.85;3.95;;;;;;;;;;5016684;28;20034;-87
2023/09/15 10:25:23;;;;;;;5.80;3.05;;;;;;;;;;5017478;28;20065;-86
2023/09/15 10:27:49;;;;;;;15.63;4.18;;;;;;;;;;5017580;28;20044;-86
2023/09/15 10:30:15;;;;;;;6.47;2.55;;;;;;;;;;5018177;28;20045;-87
2023/09/15 10:32:43;;;;;;;11.15;2.17;;;;;;;;;;5017468;28;20026;-86
2023/09/15 10:35:11;;;;;;;9.65;3.30;;;;;;;;;;5016417;28;20034;-86
2023/09/15 10:37:43;;;;;;;7.10;3.33;;;;;;;;;;5016796;28;20049;-87
2023/09/15 10:40:10;;;;;;;9.27;2.55;;;;;;;;;;5016531;28;20025;-87
2023/09/15 10:42:48;;;;;;;4.68;2.33;;;;;;;;;;5017695;28;20026;-87
2023/09/15 10:45:14;;;;;;;7.63;2.20;;;;;;;;;;5016975;28;20026;-86
2023/09/15 10:47:42;;;;;;;6.57;2.65;;;;;;;;;;5019954;28;20225;-94
2023/09/15 10:50:09;;;;;;;8.38;2.95;;;;;;;;;;5020696;28;20033;-93
2023/09/15 10:52:36;;;;;;;7.55;2.17;;;;;;;;;;5020682;28;20428;-92
2023/09/15 10:55:05;;;;;;;9.70;2.72;;;;;;;;;;5021503;28;20025;-93
2023/09/15 10:57:35;;;;;;;4.30;2.33;;;;;;;;;;5021073;28;20301;-93
2023/09/15 11:03:22;;;;;;;6.10;2.50;;;;;;;;;;5021222;28;20026;-95
2023/09/15 11:05:55;;;;;;;4.00;1.58;;;;;;;;;;5021367;28;20026;-93
2023/09/15 11:08:21;;;;;;;11.80;2.38;;;;;;;;;;5119825;23;20102;-90
2023/09/15 11:10:52;;;;;;;6.43;2.63;;;;;;;;;;5080425;28;20024;-84
2023/09/15 11:13:18;;;;;;;6.73;2.10;;;;;;;;;;5079488;28;20113;-84
2023/09/15 11:15:46;;;;;;;7.13;2.13;;;;;;;;;;5080851;28;20066;-85
2023/09/15 11:18:13;;;;;;;6.38;2.58;;;;;;;;;;5079724;28;20128;-84
2023/09/15 11:20:39;;;;;;;5.07;1.92;;;;;;;;;;5079743;28;20032;-84
2023/09/15 11:23:05;;;;;;;4.05;2.20;;;;;;;;;;5080541;28;20032;-84
2023/09/15 11:25:32;;;;;;;6.18;3.63;;;;;;;;;;5080307;28;20020;-84
2023/09/15 11:28:00;;;;;;;2.72;1.70;;;;;;;;;;5080480;28;20021;-85
2023/09/15 11:30:26;;;;;;;3.42;1.80;;;;;;;;;;5080231;28;20032;-84
2023/09/15 11:32:54;;;;;;;4.00;1.60;;;;;;;;;;5080134;28;20347;-84
2023/09/15 11:39:23;;;;;;;2.67;2.00;;;;;;;;;;5080436;28;20035;-84
2023/09/15 11:41:53;;;;;;;4.63;2.15;;;;;;;;;;5079223;28;20031;-84
2023/09/15 11:44:24;;;;;;;3.63;1.77;;;;;;;;;;5080414;28;20035;-84
2023/09/15 11:46:50;;;;;;;4.80;2.38;;;;;;;;;;5078992;28;20115;-84
2023/09/15 11:49:18;;;;;;;3.30;2.22;;;;;;;;;;5080154;28;20078;-84
2023/09/15 11:51:44;;;;;;;2.78;1.88;;;;;;;;;;5078352;28;20051;-84
2023/09/15 11:54:10;;;;;;;5.53;2.67;;;;;;;;;;5079118;28;20036;-85
2023/09/15 11:56:37;;;;;;;3.13;2.42;;;;;;;;;;5072236;28;20108;-84
2023/09/15 11:59:03;;;;;;;10.18;3.25;;;;;;;;;;5075422;28;20016;-85
2023/09/15 12:01:32;;;;;;;4.47;2.40;;;;;;;;;;5079290;28;20024;-85
2023/09/15 12:03:59;;;;;;;3.13;2.17;;;;;;;;;;5062489;28;20643;-85
2023/09/15 12:07:01;;;;;;;9.48;2.50;;;;;;;;;;5060612;28;20025;-84
2023/09/15 12:09:27;;;;;;;2.80;2.00;;;;;;;;;;5080185;28;20066;-85
2023/09/15 12:11:53;;;;;;;3.70;1.73;;;;;;;;;;5071776;28;20388;-84
2023/09/15 12:14:19;;;;;;;6.50;2.03;;;;;;;;;;5058608;28;20075;-85
2023/09/15 12:16:46;;;;;;;4.63;1.83;;;;;;;;;;5076888;28;20024;-85
2023/09/15 12:19:13;;;;;;;4.68;1.60;;;;;;;;;;5077401;28;20033;-83
2023/09/15 12:21:50;;;;;;;3.47;1.80;;;;;;;;;;5059936;28;20147;-85
2023/09/15 12:24:16;;;;;;;5.63;1.92;;;;;;;;;;5059659;28;20045;-85
2023/09/15 12:26:43;;;;;;;8.27;2.03;;;;;;;;;;5059735;28;20025;-84
2023/09/15 12:29:09;;;;;;;3.80;1.90;;;;;;;;;;5072888;28;20031;-84
2023/09/15 12:31:46;;;;;;;4.18;2.10;;;;;;;;;;5078122;28;20028;-84
2023/09/15 12:34:19;;;;;;;3.72;2.40;;;;;;;;;;5061604;28;20131;-85
2023/09/15 12:36:46;;;;;;;5.88;2.13;;;;;;;;;;5071473;28;20105;-85
2023/09/15 12:39:12;;;;;;;5.32;1.92;;;;;;;;;;5070963;28;20040;-84
2023/09/15 12:41:38;;;;;;;4.22;2.30;;;;;;;;;;5078354;28;20024;-84
2023/09/15 12:44:04;;;;;;;3.15;1.80;;;;;;;;;;5074344;28;20021;-85
2023/09/15 12:46:30;;;;;;;4.90;2.00;;;;;;;;;;5072214;28;20079;-89
2023/09/15 12:48:56;;;;;;;2.80;1.83;;;;;;;;;;5074726;28;20039;-81
2023/09/15 12:51:22;;;;;;;6.43;2.22;;;;;;;;;;5068275;28;20021;-81
2023/09/15 12:53:48;;;;;;;4.53;2.10;;;;;;;;;;5073992;28;20051;-81
2023/09/15 12:56:14;;;;;;;4.45;2.17;;;;;;;;;;5057927;28;20025;-81
2023/09/15 12:58:41;;;;;;;3.95;2.00;;;;;;;;;;5059627;28;20033;-82
2023/09/15 13:01:07;;;;;;;4.65;2.17;;;;;;;;;;5057372;28;20040;-81
2023/09/15 13:03:33;;;;;;;2.33;1.95;;;;;;;;;;5067128;28;20154;-81
2023/09/15 13:05:59;;;;;;;2.63;2.10;;;;;;;;;;5077049;28;20029;-81
2023/09/15 13:08:25;;;;;;;6.55;2.10;;;;;;;;;;5077419;28;20060;-82
2023/09/15 13:10:51;;;;;;;6.38;2.78;;;;;;;;;;5057275;28;20037;-82
2023/09/15 13:13:17;;;;;;;3.63;2.00;;;;;;;;;;5059319;28;20017;-81
2023/09/15 13:15:43;;;;;;;7.70;1.83;;;;;;;;;;5059996;28;20029;-81
2023/09/15 13:18:09;;;;;;;7.57;1.90;;;;;;;;;;5076665;28;20037;-82
2023/09/15 13:20:35;;;;;;;9.77;1.90;;;;;;;;;;5072971;28;20029;-81
2023/09/15 13:23:02;;;;;;;4.32;1.80;;;;;;;;;;5063011;28;20025;-82
2023/09/15 13:25:28;;;;;;;3.60;1.73;;;;;;;;;;5077072;28;20028;-81
2023/09/15 13:27:54;;;;;;;2.85;1.77;;;;;;;;;;5077951;28;20142;-81
2023/09/15 13:30:20;;;;;;;4.25;1.92;;;;;;;;;;5061272;28;20071;-82
2023/09/15 13:32:46;;;;;;;4.45;1.60;;;;;;;;;;5057895;28;20029;-82
2023/09/15 13:35:12;;;;;;;2.55;1.63;;;;;;;;;;5058114;28;20021;-82
2023/09/15 13:37:38;;;;;;;2.58;1.60;;;;;;;;;;5058112;28;20035;-84
2023/09/15 13:40:04;;;;;;;2.03;1.55;;;;;;;;;;5056864;28;20068;-82
2023/09/15 13:42:35;;;;;;;2.17;1.90;;;;;;;;;;5057751;28;20039;-81
2023/09/15 13:45:02;;;;;;;5.10;1.77;;;;;;;;;;5056768;28;20032;-81
2023/09/15 13:47:35;;;;;;;5.05;1.30;;;;;;;;;;5057465;28;20445;-81
2023/09/15 13:50:02;;;;;;;4.03;1.52;;;;;;;;;;5056409;28;20414;-81
2023/09/15 13:52:29;;;;;;;5.25;1.52;;;;;;;;;;5057242;28;20350;-80
2023/09/15 13:54:58;;;;;;;5.47;1.63;;;;;;;;;;5057787;28;20025;-81
2023/09/15 13:57:24;;;;;;;3.03;1.40;;;;;;;;;;5057550;28;20399;-81
2023/09/15 13:59:53;;;;;;;3.55;1.38;;;;;;;;;;5056449;28;20091;-81
2023/09/15 14:02:19;;;;;;;5.18;1.90;;;;;;;;;;5057340;28;20021;-81
2023/09/15 14:04:50;;;;;;;4.93;1.35;;;;;;;;;;5056279;28;20024;-81
2023/09/15 14:07:16;;;;;;;3.67;1.45;;;;;;;;;;5057234;28;20027;-81
2023/09/15 14:09:42;;;;;;;3.97;1.65;;;;;;;;;;5057377;28;20017;-81
2023/09/15 14:12:08;;;;;;;2.45;1.40;;;;;;;;;;5056213;28;20131;-81
2023/09/15 14:14:35;;;;;;;4.32;1.50;;;;;;;;;;5056921;28;20025;-81
2023/09/15 14:17:04;;;;;;;3.75;1.63;;;;;;;;;;5057257;28;20494;-81
2023/09/15 14:19:31;;;;;;;5.43;1.60;;;;;;;;;;5055057;28;20124;-81
2023/09/15 14:21:57;;;;;;;3.55;1.40;;;;;;;;;;5055067;28;20474;-81
2023/09/15 14:24:23;;;;;;;3.58;1.70;;;;;;;;;;5057063;28;20032;-82
2023/09/15 14:26:49;;;;;;;5.15;1.50;;;;;;;;;;5055774;28;20036;-81
2023/09/15 14:29:15;;;;;;;5.40;1.75;;;;;;;;;;5057224;28;20029;-82
2023/09/15 14:31:44;;;;;;;8.25;1.85;;;;;;;;;;5062984;28;20334;-81
2023/09/15 14:34:11;;;;;;;5.30;1.55;;;;;;;;;;5063067;28;20029;-81
2023/09/15 14:36:37;;;;;;;3.38;1.58;;;;;;;;;;5056865;28;20021;-81
2023/09/15 14:39:07;;;;;;;5.78;1.58;;;;;;;;;;5076798;28;20341;-81
2023/09/15 14:41:34;;;;;;;3.10;1.38;;;;;;;;;;5076913;28;20039;-81
2023/09/15 14:44:00;;;;;;;4.60;1.50;;;;;;;;;;5075832;28;20453;-82
2023/09/15 14:46:26;;;;;;;4.55;1.60;;;;;;;;;;5077068;28;20032;-81
2023/09/15 14:48:52;;;;;;;6.95;1.80;;;;;;;;;;5076587;28;20449;-81
2023/09/15 14:51:21;;;;;;;5.85;1.70;;;;;;;;;;5056579;28;20403;-81
2023/09/15 14:53:47;;;;;;;7.22;1.58;;;;;;;;;;5056009;28;20036;-81
2023/09/15 14:56:13;;;;;;;4.22;1.70;;;;;;;;;;5060547;28;20104;-81
2023/09/15 14:58:39;;;;;;;2.88;1.65;;;;;;;;;;5068486;28;20070;-81
2023/09/15 15:01:05;;;;;;;5.03;1.83;;;;;;;;;;5075645;28;20040;-81
2023/09/15 15:03:31;;;;;;;3.40;1.60;;;;;;;;;;5055839;28;20145;-81
2023/09/15 15:05:57;;;;;;;3.30;1.60;;;;;;;;;;5056710;28;20021;-81
2023/09/15 15:08:23;;;;;;;5.72;1.92;;;;;;;;;;5056575;28;20049;-81
2023/09/15 15:10:49;;;;;;;5.63;1.80;;;;;;;;;;5069996;28;20044;-82
2023/09/15 15:13:15;;;;;;;7.55;1.80;;;;;;;;;;5061343;28;20053;-82
2023/09/15 15:15:43;;;;;;;2.30;1.65;;;;;;;;;;5056602;28;20017;-83
2023/09/15 15:18:09;;;;;;;2.92;1.80;;;;;;;;;;5055467;28;20025;-83
2023/09/15 15:20:35;;;;;;;3.60;1.50;;;;;;;;;;5056744;28;20299;-83
2023/09/15 15:23:02;;;;;;;5.38;1.73;;;;;;;;;;5056643;28;20021;-82